ADDS METAR Data INFO
IDs: Format: Raw Decoded Include TAF

Data at: 1858 UTC 22 Sep 2017

METAR for:KJCT (Junction/Kimble Cnty, TX, US)
Text:KJCT 221851Z AUTO 14011G19KT 10SM SCT055 BKN070 32/18 A2993 RMK AO2 SLP095 T03170178
Temperature: 31.7°C ( 89°F)
Dewpoint: 17.8°C ( 64°F) [RH = 44%]
Pressure (altimeter):29.93 inches Hg (1013.6 mb) [Sea level pressure: 1009.5 mb]
Winds:from the SE (140 degrees) at 13 MPH (11 knots; 5.7 m/s) gusting to 22 MPH (19 knots; 9.8 m/s)
Visibility:10 or more sm (16+ km)
Ceiling:7000 feet AGL
Clouds: scattered clouds at 5500 feet AGL, broken clouds at 7000 feet AGL
QC Flag:automated observation with no human augmentation